Tiempo atmosférico en la estación meteorológica de Cartaya, Huelva (15 m.)



Fecha
DESCASC
Temp. máxima en grados centígrados (hora)
DESCASC
Temp. mínima en grados centígrados (hora)
DESCASC
Temp. media en grados centígrados
DESCASC
Racha de viento máxima en m/sg (hora)
DESCASC
Velocidad máxima media en intervalos de 10 minutos(hora)
DESCASC
Precipitaciones diarias en mm
DESCASC
Precipitaciones de 00:00 a 06:00 en mm
DESCASC
Precipitaciones de 06:00 a 12:00 en mm
DESCASC
Precipitaciones de 12:00 a 18:00 en mm
DESCASC
Precipitaciones de 18:00 a 24:00 en mm
DESCASC
23-06-2019 24.2 (12:50) 8.9 (07:20) 16.6 7.5 (19:00) 5 (19:00) 0 0 0 0 0
22-06-2019 24.9 (12:00) 15 (07:30) 19.9 7.5 (00:30) 4.17 (13:00) 0 0 0 0 0
21-06-2019 27.2 (13:40) 13.3 (07:40) 20.3 11.67 (14:10) 7.5 (14:10) 0 0 0 0 0
20-06-2019 25.9 (20:50) 15.6 (00:00) 20.8 12.22 (15:50) 6.39 (16:00) 0 0 0 0 0
19-06-2019 23.4 (15:40) 12.1 (00:00) 17.8 10.28 (18:50) 6.39 (19:10) 0 0 0 0 0
18-06-2019 22.3 (15:00) 8.8 (00:00) 15.5 7.5 (01:40) 3.89 (01:40) 0 0 0 0 0
17-06-2019 21.5 (15:40) 8.9 (00:00) 15.2 7.5 (20:10) 4.72 (20:20) 0 0 0 0 0
16-06-2019 22.7 (13:50) 13.7 (00:00) 18.2 7.78 (05:50) 4.17 (17:50) 0 0 0 0 0
15-06-2019 22.1 (14:10) 12.9 (00:00) 17.5 13.33 (17:50) 6.94 (17:40) 0 0 0 0 0
14-06-2019 20.6 (17:20) 12.5 (00:00) 16.6 11.39 (18:20) 6.94 (19:10) 0 0 0 0 0
13-06-2019 25.8 (13:50) 12.6 (00:00) 19.2 10.28 (14:20) 6.11 (18:00) 0 0 0 0 0
12-06-2019 24.3 (17:30) 14.5 (00:00) 19.4 10.28 (18:40) 6.39 (18:20) 0 0 0 0 0
11-06-2019 27.8 (14:40) 14.1 (00:00) 20.9 11.67 (03:40) 6.67 (16:20) 0 0 0 0 0
10-06-2019 25.3 (13:20) 14 (00:00) 19.6 12.5 (17:50) 7.22 (18:10) 0 0 0 0 0
09-06-2019 27.4 (14:30) 12.9 (00:00) 20.1 11.94 (15:50) 6.67 (16:40) 0 0 0 0 0
08-06-2019 28.1 (13:00) 13.7 (00:00) 20.9 10.28 (15:50) 6.39 (15:30) 0 0 0 0 0
07-06-2019 26.9 (17:20) 12.6 (00:00) 19.8 11.11 (18:40) 7.22 (18:40) 0 0 0 0 0
06-06-2019 22.1 (12:00) 11.7 (00:00) 16.9 13.89 (18:50) 8.33 (19:10) 0 0 0 0 0
05-06-2019 25.8 (15:40) 12.4 (00:00) 19.1 11.11 (11:40) 6.67 (16:30) 0 0 0 0 0
04-06-2019 27.2 (13:00) 15.9 (00:00) 21.6 12.22 (14:50) 7.5 (14:50) 0 0 0 0 0
03-06-2019 26.8 (12:30) 13 (00:00) 19.9 8.61 (17:10) 5.28 (17:00) 0 0 0 0 0
02-06-2019 28.9 (12:00) 13.1 (00:00) 21 7.78 (21:50) 4.72 (19:30) 0 0 0 0 0
01-06-2019 28.8 (15:50) 13.3 (00:00) 21 7.5 (09:50) 4.44 (16:10) 0 0 0 0 0
31-05-2019 27.3 (15:30) 12 (00:00) 19.6 6.94 (11:00) 4.17 (16:40) 0 0 0 0 0
30-05-2019 28.3 (15:30) 12 (00:00) 20.1 6.67 (12:00) 4.44 (16:00) 0 0 0 0 0
29-05-2019 29.7 (12:20) 13.7 (00:00) 21.7 12.78 (10:40) 6.11 (10:30) 0 0 0 0 0
28-05-2019 30.4 (12:40) 15.5 (00:00) 22.9 11.11 (02:20) 5.28 (18:00) 0 0 0 0 0
27-05-2019 26.4 (23:00) 11.5 (00:00) 18.9 9.72 (16:50) 5.83 (16:20) 0 0 0 0 0
26-05-2019 24.6 (15:30) 10.6 (00:00) 17.6 9.72 (19:00) 5.83 (18:30) 0 0 0 0 0
25-05-2019 24.5 (00:00) 17.7 (00:00) 21.1 8.89 (18:40) 5.83 (15:40) 0 0 0 0 0

Gráficas

Temp. máximas Temp. mínimas Temp. medias Precipitaciones Rachas de viento máximas Velocidades máximas media en intervalos de 10 minutos

Datos horarios

Fecha y hora oficial Temperatura (ºC) Velocidad del viento (km/h) Dirección del viento Racha (km/h) Dirección de racha Precipitación (mm) Presión (hPa) Tendencia (hPa) Humedad (%)
2019-06-23 23:00:00 19.4 5 Sudoeste 14 Sudoeste 0 -- -- 92
2019-06-23 22:00:00 19.3 9 Sudoeste 21 Oeste 0 -- -- 91
2019-06-23 21:00:00 20.3 11 Sudoeste 23 Oeste 0 -- -- 87
2019-06-23 20:00:00 21.4 13 Sudoeste 27 Sudoeste 0 -- -- 80
2019-06-23 19:00:00 22.8 18 Sudoeste 27 Oeste 0 -- -- 67
2019-06-23 18:00:00 22.5 13 Sudoeste 21 Sudoeste 0 -- -- 66
2019-06-23 17:00:00 22.9 14 Sudoeste 22 Sudoeste 0 -- -- 69
2019-06-23 16:00:00 23.4 11 Sur 21 Sur 0 -- -- 65
2019-06-23 15:00:00 23.2 13 Sur 23 Sur 0 -- -- 71
2019-06-23 14:00:00 23.7 10 Sur 18 Sudeste 0 -- -- 66
2019-06-23 13:00:00 24 10 Sur 17 Sur 0 -- -- 57
2019-06-23 12:00:00 23.4 7 Sur 15 Sur 0 -- -- 48
2019-06-23 11:00:00 22.2 7 Sur 14 Sudeste 0 -- -- 53
2019-06-23 10:00:00 21.8 4 Sudeste 9 Norte 0 -- -- 51
2019-06-23 09:00:00 18 5 Noroeste 12 Noroeste 0 -- -- 63
2019-06-23 08:00:00 11.5 4 Noroeste 8 Noroeste 0 -- -- 82
2019-06-23 07:00:00 9.3 0 Calma 4 Este 0 -- -- 83
2019-06-23 06:00:00 10.1 0 Calma 5 Nordeste 0 -- -- 81
2019-06-23 05:00:00 11.2 3 Norte 6 Norte 0 -- -- 78
2019-06-23 04:00:00 12.4 4 Norte 8 Norte 0 -- -- 75
2019-06-23 03:00:00 12 5 Norte 8 Norte 0 -- -- 80
2019-06-23 02:00:00 13.3 3 Nordeste 8 Nordeste 0 -- -- 80
2019-06-23 01:00:00 15.2 4 Nordeste 6 Norte 0 -- -- 78
2019-06-23 00:00:00 16.6 3 Noroeste 6 Oeste 0 -- -- 77
2019-06-22 23:00:00 18.7 5 Noroeste 13 Oeste 0 -- -- 72
2019-06-22 22:00:00 19.9 7 Oeste 11 Oeste 0 -- -- 71
2019-06-22 21:00:00 20.9 6 Sudoeste 13 Sur 0 -- -- 70
2019-06-22 20:00:00 21.3 9 Sudoeste 18 Sudoeste 0 -- -- 70
2019-06-22 19:00:00 22.3 12 Sudoeste 21 Sudoeste 0 -- -- 68
2019-06-22 18:00:00 22.1 14 Sudoeste 24 Sudoeste 0 -- -- 78
2019-06-22 17:00:00 23.5 10 Sudoeste 18 Sur 0 -- -- 72
2019-06-22 16:00:00 23.5 10 Sur 21 Sudeste 0 -- -- 70
2019-06-22 15:00:00 23.3 14 Sudeste 24 Sudeste 0 -- -- 71
2019-06-22 14:00:00 23.5 14 Sudeste 23 Sudeste 0 -- -- 72
2019-06-22 13:00:00 24.1 15 Sudeste 24 Sudeste 0 -- -- 68
2019-06-22 12:00:00 24.9 10 Sudeste 19 Este 0 -- -- 61
2019-06-22 11:00:00 21.7 7 Sur 13 Sur 0 -- -- 60
2019-06-22 10:00:00 23.4 7 Este 14 Este 0 -- -- 47
2019-06-22 09:00:00 19.7 4 Nordeste 8 Norte 0 -- -- 56
2019-06-22 08:00:00 15.6 0 Calma 9 Norte 0 -- -- 68
2019-06-22 07:00:00 15.8 6 Norte 16 Noroeste 0 -- -- 66
2019-06-22 06:00:00 17 8 Norte 24 Norte 0 -- -- 63
2019-06-22 05:00:00 17.9 12 Noroeste 26 Noroeste 0 -- -- 61
2019-06-22 04:00:00 18.9 12 Noroeste 24 Noroeste 0 -- -- 59
2019-06-22 03:00:00 19.9 12 Noroeste 26 Noroeste 0 -- -- 57
2019-06-22 02:00:00 20.8 11 Noroeste 25 Noroeste 0 -- -- 56
2019-06-22 01:00:00 22.1 13 Noroeste 27 Noroeste 0 -- -- 54
2019-06-22 00:00:00 23.3 12 Noroeste 25 Noroeste 0 -- -- 51
2019-06-21 23:00:00 20.9 12 Noroeste 24 Noroeste 0 -- -- 62
2019-06-21 22:00:00 20.6 10 Oeste 24 Sudoeste 0 -- -- 72
2019-06-21 21:00:00 23.4 18 Oeste 35 Oeste 0 -- -- 55
2019-06-21 20:00:00 24.2 18 Oeste 37 Oeste 0 -- -- 53
2019-06-21 19:00:00 23 24 Oeste 36 Sudoeste 0 -- -- 60
2019-06-21 18:00:00 22.7 18 Sudoeste 35 Sudoeste 0 -- -- 64
2019-06-21 17:00:00 22.1 23 Sudoeste 36 Sudoeste 0 -- -- 64
2019-06-21 16:00:00 22.1 21 Sudoeste 39 Oeste 0 -- -- 67
2019-06-21 15:00:00 21 25 Sudoeste 42 Sudoeste 0 -- -- 68
2019-06-21 14:00:00 24 21 Sudoeste 33 Sudoeste 0 -- -- 59
2019-06-21 13:00:00 25.4 11 Noroeste 26 Norte 0 -- -- 47
2019-06-21 12:00:00 22.9 12 Norte 30 Norte 0 -- -- 55
2019-06-21 11:00:00 20.7 15 Noroeste 35 Noroeste 0 -- -- 63
2019-06-21 10:00:00 18.3 17 Noroeste 32 Norte 0 -- -- 70
2019-06-21 09:00:00 17 14 Noroeste 27 Noroeste 0 -- -- 76
2019-06-21 08:00:00 13.9 4 Noroeste 11 Noroeste 0 -- -- 87
2019-06-21 07:00:00 13.8 6 Noroeste 11 Norte 0 -- -- 86
2019-06-21 06:00:00 14.9 6 Noroeste 17 Noroeste 0 -- -- 82
2019-06-21 05:00:00 15.8 8 Noroeste 24 Noroeste 0 -- -- 77
2019-06-21 04:00:00 16.8 13 Noroeste 27 Norte 0 -- -- 72
2019-06-21 03:00:00 17.8 14 Noroeste 34 Noroeste 0 -- -- 68
2019-06-21 02:00:00 18.4 14 Noroeste 30 Noroeste 0 -- -- 69
2019-06-21 01:00:00 19.2 14 Noroeste 32 Oeste 0 -- -- 67
2019-06-21 00:00:00 20.4 14 Noroeste 30 Oeste 0 -- -- 59
2019-06-20 23:00:00 22 14 Noroeste 28 Oeste 0 -- -- 55
2019-06-20 22:00:00 23.5 10 Noroeste 32 Noroeste 0 -- -- 50
2019-06-20 21:00:00 25.9 12 Noroeste 27 Noroeste 0 -- -- 44
2019-06-20 20:00:00 22.4 16 Sudoeste 28 Sudoeste 0 -- -- 67
2019-06-20 19:00:00 22.4 21 Sudoeste 33 Sudoeste 0 -- -- 68
2019-06-20 18:00:00 22.8 21 Sudoeste 37 Oeste 0 -- -- 65
2019-06-20 17:00:00 22.8 23 Sudoeste 34 Sudoeste 0 -- -- 65
2019-06-20 16:00:00 22.4 23 Sudoeste 44 Sudoeste 0 -- -- 65
2019-06-20 15:00:00 22.1 22 Sudoeste 33 Sudoeste 0 -- -- 70
2019-06-20 14:00:00 22 20 Sudoeste 33 Sudoeste 0 -- -- 70
2019-06-20 13:00:00 21.3 17 Sudoeste 27 Sudoeste 0 -- -- 71
2019-06-20 12:00:00 20.1 16 Sudoeste 28 Sudoeste 0 -- -- 75
2019-06-20 11:00:00 23 10 Oeste 22 Sudoeste 0 -- -- 61
2019-06-20 10:00:00 20.8 10 Oeste 23 Norte 0 -- -- 71
2019-06-20 09:00:00 18.1 12 Noroeste 27 Norte 0 -- -- 82
2019-06-20 08:00:00 16 8 Noroeste 20 Noroeste 0 -- -- 91
2019-06-20 07:00:00 15.7 6 Noroeste 18 Noroeste 0 -- -- 92
2019-06-20 06:00:00 16.3 6 Noroeste 16 Noroeste 0 -- -- 90
2019-06-20 05:00:00 17.1 4 Noroeste 13 Noroeste 0 -- -- 85
2019-06-20 04:00:00 17.6 4 Noroeste 18 Noroeste 0 -- -- 81
2019-06-20 03:00:00 17.9 8 Noroeste 16 Noroeste 0 -- -- 75
2019-06-20 02:00:00 18.4 7 Noroeste 15 Noroeste 0 -- -- 74
2019-06-20 01:00:00 18.8 8 Noroeste 18 Oeste 0 -- -- 75
2019-06-20 00:00:00 19.2 7 Oeste 27 Oeste 0 -- -- 84
2019-06-19 23:00:00 19.6 15 Oeste 33 Sudoeste 0 -- -- 84
2019-06-19 22:00:00 19.5 19 Oeste 34 Sudoeste 0 -- -- 89
2019-06-19 21:00:00 20.4 17 Oeste 31 Sudoeste 0 -- -- 84
2019-06-19 20:00:00 21.3 21 Sudoeste 37 Sudoeste 0 -- -- 80
2019-06-19 19:00:00 21.8 23 Sudoeste 37 Oeste 0 -- -- 80
2019-06-19 18:00:00 22.4 16 Sudoeste 33 Sudoeste 0 -- -- 78
2019-06-19 17:00:00 22.6 15 Sudoeste 24 Sudoeste 0 -- -- 79
2019-06-19 16:00:00 23.4 17 Sudoeste 29 Sudoeste 0 -- -- 73
2019-06-19 15:00:00 22.3 13 Sudoeste -- -- -- -- -- 79
2019-06-19 14:00:00 -- -- -- -- -- -- -- -- --
2019-06-19 13:00:00 21.6 13 Sudoeste 20 Sudoeste 0 -- -- 81
2019-06-19 12:00:00 20.6 9 Sudoeste 14 Sur 0 -- -- 84
2019-06-19 11:00:00 20 5 Sur 10 Sudeste 0 -- -- 87
2019-06-19 10:00:00 18 3 Sudeste 6 Sudeste 0 -- -- 98
2019-06-19 09:00:00 16.6 0 Calma 3 Este 0 -- -- 100
2019-06-19 08:00:00 14.1 2 Norte 5 Nordeste 0 -- -- 100
2019-06-19 07:00:00 13 2 Norte 3 Norte 0 -- -- 100
2019-06-19 06:00:00 12.1 0 Calma 8 Sudoeste 0 -- -- 96
2019-06-19 05:00:00 13 5 Sudoeste 7 Sudoeste 0 -- -- 95
2019-06-19 04:00:00 15.4 3 Sudoeste 10 Sudoeste 0 -- -- 95
2019-06-19 03:00:00 17.5 6 Sudoeste 10 Sudoeste 0 -- -- 98
2019-06-19 02:00:00 17.7 4 Sudoeste 17 Oeste 0 -- -- 97
2019-06-19 01:00:00 17.9 8 Oeste 15 Sudoeste 0 -- -- 97
2019-06-19 00:00:00 18.1 9 Oeste 15 Sudoeste 0 -- -- 96
2019-06-18 23:00:00 18.5 12 Sudoeste 25 Sudoeste 0 -- -- 96
2019-06-18 22:00:00 18.8 6 Sudoeste 15 Sudoeste 0 -- -- 93
2019-06-18 21:00:00 20.3 8 Sudoeste 19 Sudoeste 0 -- -- 86
2019-06-18 20:00:00 21.4 11 Sudoeste 17 Sudoeste 0 -- -- 81
2019-06-18 19:00:00 21.7 9 Sur 19 Sur 0 -- -- 80
2019-06-18 18:00:00 21.8 12 Sur 20 Sur 0 -- -- 78
2019-06-18 17:00:00 21.9 11 Sur 18 Sur 0 -- -- 78
2019-06-18 16:00:00 21.4 10 Sur 23 Sur 0 -- -- 80
2019-06-18 15:00:00 22.3 11 Sur 23 Sur 0 -- -- 74
2019-06-18 14:00:00 21.5 10 Sudeste 19 Sur 0 -- -- 76
2019-06-18 13:00:00 20.9 10 Sudeste 20 Sudeste 0 -- -- 78
2019-06-18 12:00:00 19.7 12 Sudeste 17 Sudeste 0 -- -- 81
2019-06-18 11:00:00 18.8 8 Sudeste 17 Sudeste 0 -- -- 81
2019-06-18 10:00:00 16.3 5 Este 11 Este 0 -- -- 85
2019-06-18 09:00:00 14.1 3 Este 8 Nordeste 0 -- -- 96
2019-06-18 08:00:00 11 5 Norte 8 Norte 0 -- -- 99
2019-06-18 07:00:00 8.9 4 Norte 6 Norte 0 -- -- 97
2019-06-18 06:00:00 9.7 3 Noroeste 6 Norte 0 -- -- 95
2019-06-18 05:00:00 11.5 3 Noroeste 8 Oeste 0 -- -- 95
2019-06-18 04:00:00 13 4 Noroeste 7 Noroeste 0 -- -- 94
2019-06-18 03:00:00 15.5 4 Oeste 22 Sudoeste 0 -- -- 92
2019-06-18 02:00:00 16.1 14 Oeste 27 Sudoeste 0 -- -- 91
2019-06-18 01:00:00 16.4 13 Sudoeste 22 Oeste 0 -- -- 91
2019-06-18 00:00:00 16.5 8 Sudoeste 18 Sudoeste 0 -- -- 91
2019-06-17 23:00:00 16.6 10 Sudoeste 17 Oeste 0 -- -- 90
2019-06-17 22:00:00 16.9 7 Sudoeste 24 Oeste 0 -- -- 87
2019-06-17 21:00:00 18.5 14 Oeste 27 Oeste 0 -- -- 75
2019-06-17 20:00:00 19.9 14 Sudoeste 24 Sudoeste 0 -- -- 78
2019-06-17 19:00:00 20.5 14 Sudoeste 25 Oeste 0 -- -- 75
2019-06-17 18:00:00 21.1 12 Sudoeste 21 Sudoeste 0 -- -- 74
2019-06-17 17:00:00 21 13 Sudoeste 21 Sudoeste 0 -- -- 74
2019-06-17 16:00:00 21.2 13 Sudoeste 19 Sur 0 -- -- 74
2019-06-17 15:00:00 21.2 10 Sur 22 Sur 0 -- -- 74
2019-06-17 14:00:00 20.8 12 Sur 19 Sur 0 -- -- 78
2019-06-17 13:00:00 21 10 Sur 16 Sur 0 -- -- 77
2019-06-17 12:00:00 20.8 10 Sudeste 17 Sudeste 0 -- -- 77
2019-06-17 11:00:00 20.4 9 Sudeste 17 Este 0 -- -- 76
2019-06-17 10:00:00 19.7 8 Sudeste 15 Sudeste 0 -- -- 76
2019-06-17 09:00:00 16.4 7 Nordeste 13 Nordeste 0 -- -- 80
2019-06-17 08:00:00 11.4 6 Norte 10 Norte 0 -- -- 89
2019-06-17 07:00:00 10.4 6 Nordeste 13 Nordeste 0 -- -- 91
2019-06-17 06:00:00 9.2 6 Norte 10 Norte 0 -- -- 87
2019-06-17 05:00:00 9.9 6 Norte 9 Norte 0 -- -- 87
2019-06-17 04:00:00 9.9 4 Norte 8 Norte 0 -- -- 86
2019-06-17 03:00:00 11.3 4 Norte 8 Noroeste 0 -- -- 83
2019-06-17 02:00:00 10.9 5 Norte 7 Norte 0 -- -- 88
2019-06-17 01:00:00 12.1 5 Nordeste 8 Nordeste 0 -- -- 87
2019-06-17 00:00:00 13.7 3 Noroeste 7 Sudoeste 0 -- -- 83
2019-06-16 23:00:00 16.5 4 Sudoeste 10 Sudoeste 0 -- -- 77
2019-06-16 22:00:00 18.8 4 Sudoeste 10 Sur 0 -- -- 74
2019-06-16 21:00:00 20.8 5 Sudoeste 11 Sudoeste 0 -- -- 66
2019-06-16 20:00:00 21.1 8 Sur 15 Sudoeste 0 -- -- 68
2019-06-16 19:00:00 21.7 8 Sur 23 Sudoeste 0 -- -- 64
2019-06-16 18:00:00 21.2 15 Sudoeste 27 Sudoeste 0 -- -- 66
2019-06-16 17:00:00 21.7 14 Sudoeste 22 Sur 0 -- -- 67
2019-06-16 16:00:00 21.7 15 Sudoeste 22 Sudoeste 0 -- -- 64
2019-06-16 15:00:00 21.6 12 Sur 22 Sur 0 -- -- 61
2019-06-16 14:00:00 22.5 10 Sur 19 Sur 0 -- -- 57
2019-06-16 13:00:00 21.5 9 Sur 18 Sur 0 -- -- 58
2019-06-16 12:00:00 20.7 7 Sur 12 Este 0 -- -- 61
2019-06-16 11:00:00 21.4 5 Norte 14 Norte 0 -- -- 51
2019-06-16 10:00:00 18.7 6 Norte 14 Noroeste 0 -- -- 58
2019-06-16 09:00:00 17.3 5 Norte 16 Noroeste 0 -- -- 63
2019-06-16 08:00:00 16 9 Norte 20 Noroeste 0 -- -- 67
2019-06-16 07:00:00 15.6 11 Noroeste 25 Noroeste 0 -- -- 67
2019-06-16 06:00:00 16.1 12 Noroeste 28 Norte 0 -- -- 67
2019-06-16 05:00:00 16.4 13 Noroeste 25 Norte 0 -- -- 67
2019-06-16 04:00:00 16.7 13 Noroeste 27 Noroeste 0 -- -- 65
2019-06-16 03:00:00 17.4 12 Noroeste 26 Noroeste 0 -- -- 62
2019-06-16 02:00:00 18.2 12 Noroeste 26 Noroeste 0 -- -- 59
2019-06-16 01:00:00 18.3 8 Noroeste 17 Noroeste 0 -- -- 59
2019-06-16 00:00:00 17.5 7 Noroeste 14 Noroeste 0 -- -- 65
2019-06-15 23:00:00 17.7 3 Noroeste 17 Oeste 0 -- -- 68
2019-06-15 22:00:00 19 9 Oeste 29 Sudoeste 0 -- -- 68
2019-06-15 21:00:00 19.6 14 Oeste 31 Sudoeste 0 -- -- 68
2019-06-15 20:00:00 20.9 18 Oeste 39 Oeste 0 -- -- 59
2019-06-15 19:00:00 20.5 24 Oeste 38 Oeste 0 -- -- 60
2019-06-15 18:00:00 20.8 24 Oeste 48 Sudoeste 0 -- -- 56
2019-06-15 17:00:00 21.1 18 Sudoeste 34 Oeste 0 -- -- 63
2019-06-15 16:00:00 20.4 22 Sudoeste 32 Sudoeste 0 -- -- 68
2019-06-15 15:00:00 21.5 15 Sudoeste 26 Sudoeste 0 -- -- 63
2019-06-15 14:00:00 21.9 13 Sudoeste 22 Sudeste 0 -- -- 59
2019-06-15 13:00:00 21.5 10 Sur 22 Sur 0 -- -- 57
2019-06-15 12:00:00 21.3 11 Sur 16 Sur 0 -- -- 56
2019-06-15 11:00:00 21.6 8 Noroeste 19 Noroeste 0 -- -- 48
2019-06-15 10:00:00 20 11 Norte 19 Norte 0 -- -- 56
2019-06-15 09:00:00 16.8 8 Norte 21 Norte 0 -- -- 69
2019-06-15 08:00:00 13.6 9 Noroeste 18 Noroeste 0 -- -- 83
2019-06-15 07:00:00 12.9 10 Noroeste 19 Noroeste 0 -- -- 85
2019-06-15 06:00:00 13.4 8 Norte 19 Noroeste 0 -- -- 82
2019-06-15 05:00:00 14 10 Noroeste 20 Noroeste 0 -- -- 79
2019-06-15 04:00:00 14.4 9 Noroeste 22 Noroeste 0 -- -- 74
2019-06-15 03:00:00 15.2 10 Noroeste 24 Norte 0 -- -- 69
2019-06-15 02:00:00 16 11 Noroeste 21 Noroeste 0 -- -- 63
2019-06-15 01:00:00 16.9 10 Noroeste 25 Noroeste 0 -- -- 55
2019-06-15 00:00:00 17.8 11 Noroeste 26 Oeste 0 -- -- 51
2019-06-14 23:00:00 18.3 10 Noroeste 22 Noroeste 0 -- -- 52
2019-06-14 22:00:00 17.3 5 Oeste 25 Sudoeste 0 -- -- 75
2019-06-14 21:00:00 18.2 18 Sudoeste 36 Sudoeste 0 -- -- 74
2019-06-14 20:00:00 18.8 24 Sudoeste 39 Sudoeste 0 -- -- 68
2019-06-14 19:00:00 19.6 22 Sudoeste 41 Sudoeste 0 -- -- 66
2019-06-14 18:00:00 20.1 23 Sudoeste 37 Sudoeste 0 -- -- 64
2019-06-14 17:00:00 20.5 19 Sudoeste 39 Sudoeste 0 -- -- 62
2019-06-14 16:00:00 19.9 24 Sudoeste 37 Sudoeste 0 -- -- 66
2019-06-14 15:00:00 19.9 23 Sudoeste 36 Sudoeste 0 -- -- 67
2019-06-14 14:00:00 19.9 18 Sudoeste 40 Sudoeste 0 -- -- 62
2019-06-14 13:00:00 19 19 Sudoeste 30 Sudoeste 0 -- -- 65
2019-06-14 12:00:00 17.9 17 Sudoeste 31 Sudoeste 0 -- -- 67
2019-06-14 11:00:00 19.2 12 Noroeste 25 Sudoeste 0 -- -- 52
2019-06-14 10:00:00 17.4 11 Oeste 28 Oeste 0 -- -- 60
2019-06-14 09:00:00 15.2 13 Noroeste 26 Noroeste 0 -- -- 71
2019-06-14 08:00:00 12.9 11 Noroeste 28 Noroeste 0 -- -- 79
2019-06-14 07:00:00 12.7 11 Noroeste 24 Noroeste 0 -- -- 77
2019-06-14 06:00:00 13.4 10 Noroeste 24 Noroeste 0 -- -- 72
2019-06-14 05:00:00 14.2 10 Noroeste 28 Noroeste 0 -- -- 66
2019-06-14 04:00:00 14.9 11 Noroeste 27 Noroeste 0 -- -- 61
2019-06-14 03:00:00 15.6 12 Noroeste 27 Noroeste 0 -- -- 61
2019-06-14 02:00:00 16.4 11 Noroeste 33 Noroeste 0 -- -- 61
2019-06-14 01:00:00 17.4 12 Noroeste 30 Noroeste 0 -- -- 58
2019-06-14 00:00:00 18.7 11 Noroeste 34 Noroeste 0 -- -- 53
2019-06-13 23:00:00 20.1 12 Noroeste 23 Oeste 0 -- -- 48
2019-06-13 22:00:00 19.6 11 Oeste 23 Oeste 0 -- -- 58
2019-06-13 21:00:00 20.1 13 Oeste 33 Sudoeste 0 -- -- 60
2019-06-13 20:00:00 21.1 17 Sudoeste 32 Sudoeste 0 -- -- 59
2019-06-13 19:00:00 20.8 18 Sudoeste 33 Sudoeste 0 -- -- 62
2019-06-13 18:00:00 21.5 22 Sudoeste 32 Sudoeste 0 -- -- 60
2019-06-13 17:00:00 22 19 Sudoeste 30 Sudoeste 0 -- -- 55
2019-06-13 16:00:00 23.6 16 Sudoeste 26 Sudoeste 0 -- -- 48
2019-06-13 15:00:00 24.8 15 Sudoeste 37 Sudoeste 0 -- -- 37
2019-06-13 14:00:00 25.6 16 Sudoeste 28 Sudoeste 0 -- -- 27
2019-06-13 13:00:00 24 8 Norte 28 Noroeste 0 -- -- 34
2019-06-13 12:00:00 22 13 Noroeste 31 Noroeste 0 -- -- 39
2019-06-13 11:00:00 19.5 15 Noroeste 33 Noroeste 0 -- -- 46
2019-06-13 10:00:00 17.6 15 Norte 31 Norte 0 -- -- 54
2019-06-13 09:00:00 15.4 10 Noroeste 28 Norte 0 -- -- 64
2019-06-13 08:00:00 13.1 8 Noroeste 24 Norte 0 -- -- 70
2019-06-13 07:00:00 12.8 9 Norte 21 Noroeste 0 -- -- 69
2019-06-13 06:00:00 13.4 9 Norte 18 Norte 0 -- -- 65
2019-06-13 05:00:00 14.2 5 Norte 22 Noroeste 0 -- -- 61
2019-06-13 04:00:00 15.4 13 Norte 31 Norte 0 -- -- 56
2019-06-13 03:00:00 16.7 14 Noroeste 30 Noroeste 0 -- -- 51
2019-06-13 02:00:00 18.1 13 Noroeste 25 Noroeste 0 -- -- 46
2019-06-13 01:00:00 18.6 9 Noroeste 19 Noroeste 0 -- -- 42
2019-06-13 00:00:00 16.7 6 Oeste 16 Sudoeste 0 -- -- 71
2019-06-12 23:00:00 18 11 Oeste 22 Oeste 0 -- -- 84
2019-06-12 22:00:00 18.6 12 Sudoeste 30 Oeste 0 -- -- 86
2019-06-12 21:00:00 20.1 13 Oeste 28 Oeste 0 -- -- 81
2019-06-12 20:00:00 21.2 18 Oeste 33 Sudoeste 0 -- -- 77
2019-06-12 19:00:00 21.7 22 Sudoeste 37 Oeste 0 -- -- 76
2019-06-12 18:00:00 23.2 19 Sudoeste 31 Oeste 0 -- -- 68
2019-06-12 17:00:00 23.9 16 Sudoeste 27 Sudoeste 0 -- -- 64
2019-06-12 16:00:00 23.8 17 Sudoeste 24 Oeste 0 -- -- 63
2019-06-12 15:00:00 23.6 15 Sudoeste 21 Sudoeste 0 -- -- 62
2019-06-12 14:00:00 23.7 13 Sudoeste 20 Sudoeste 0 -- -- 61
2019-06-12 13:00:00 23.4 7 Oeste 18 Sudoeste 0 -- -- 63
2019-06-12 12:00:00 22.5 8 Sudoeste 17 Sudoeste 0 -- -- 67
2019-06-12 11:00:00 22.2 5 Sur 10 Sur 0 -- -- 67
2019-06-12 10:00:00 21.2 6 Sudeste 20 Este 0 -- -- 62
2019-06-12 09:00:00 19.4 9 Norte 15 Norte 0 -- -- 41
2019-06-12 08:00:00 14.7 5 Nordeste 15 Norte 0 -- -- 58
2019-06-12 07:00:00 15.3 9 Norte 19 Norte 0 -- -- 59
2019-06-12 06:00:00 16 11 Noroeste 21 Noroeste 0 -- -- 58
2019-06-12 05:00:00 16.5 10 Noroeste 22 Noroeste 0 -- -- 57
2019-06-12 04:00:00 17.4 10 Noroeste 23 Noroeste 0 -- -- 53
2019-06-12 03:00:00 18.1 12 Noroeste 23 Noroeste 0 -- -- 48
2019-06-12 02:00:00 18.7 10 Noroeste 23 Noroeste 0 -- -- 35
2019-06-12 01:00:00 18.9 7 Norte 13 Norte 0 -- -- 34
2019-06-12 00:00:00 20.4 8 Norte 15 Noroeste 0 -- -- 30
2019-06-11 23:00:00 20.7 8 Noroeste 12 Noroeste 0 -- -- 32
2019-06-11 22:00:00 20.3 6 Noroeste 17 Sudoeste 0 -- -- 54
2019-06-11 21:00:00 22.2 13 Oeste 33 Oeste 0 -- -- 59
2019-06-11 20:00:00 22.3 15 Sudoeste 31 Sudoeste 0 -- -- 63
2019-06-11 19:00:00 21.9 18 Sudoeste 35 Sudoeste 0 -- -- 70
2019-06-11 18:00:00 22.1 19 Sudoeste 37 Sudoeste 0 -- -- 69
2019-06-11 17:00:00 22.2 20 Sudoeste 38 Sudoeste 0 -- -- 67
2019-06-11 16:00:00 21.8 23 Sudoeste 40 Sudoeste 0 -- -- 68
2019-06-11 15:00:00 23.5 21 Sudoeste 37 Sudoeste 0 -- -- 59
2019-06-11 14:00:00 26.6 13 Noroeste 33 Noroeste 0 -- -- 38
2019-06-11 13:00:00 24.9 13 Noroeste 35 Oeste 0 -- -- 42
2019-06-11 12:00:00 22.9 13 Noroeste 29 Oeste 0 -- -- 47
2019-06-11 11:00:00 20.5 13 Noroeste 33 Noroeste 0 -- -- 54
2019-06-11 10:00:00 18.3 21 Noroeste 40 Noroeste 0 -- -- 61
2019-06-11 09:00:00 16.4 17 Noroeste 42 Norte 0 -- -- 68
2019-06-11 08:00:00 14.5 15 Noroeste 36 Noroeste 0 -- -- 74
2019-06-11 07:00:00 14.2 16 Noroeste 33 Noroeste 0 -- -- 72
2019-06-11 06:00:00 14.4 15 Noroeste 36 Norte 0 -- -- 69
2019-06-11 05:00:00 14.9 14 Noroeste 37 Noroeste 0 -- -- 64
2019-06-11 04:00:00 15.6 15 Noroeste 42 Noroeste 0 -- -- 61
2019-06-11 03:00:00 16.7 20 Noroeste 37 Noroeste 0 -- -- 57
2019-06-11 02:00:00 18.3 17 Noroeste 37 Noroeste 0 -- -- 49
2019-06-11 01:00:00 19.7 14 Noroeste 36 Noroeste 0 -- -- 44
2019-06-11 00:00:00 20.8 17 Noroeste 33 Noroeste 0 -- -- 44
2019-06-10 23:00:00 20.4 12 Noroeste 27 Noroeste 0 -- -- 51
2019-06-10 22:00:00 18.5 14 Oeste 26 Sudoeste 0 -- -- 82
2019-06-10 21:00:00 20.4 15 Oeste 31 Oeste 0 -- -- 69
2019-06-10 20:00:00 20.8 16 Sudoeste 35 Sudoeste 0 -- -- 68
2019-06-10 19:00:00 20.8 23 Sudoeste 40 Sudoeste 0 -- -- 69
2019-06-10 18:00:00 21 25 Sudoeste 45 Sudoeste 0 -- -- 67
2019-06-10 17:00:00 21.3 23 Sudoeste 44 Sudoeste 0 -- -- 70
2019-06-10 16:00:00 21.6 25 Sudoeste 40 Sudoeste 0 -- -- 67
2019-06-10 15:00:00 21.4 22 Sudoeste 35 Sudoeste 0 -- -- 69
2019-06-10 14:00:00 21.8 21 Sudoeste 35 Sudoeste 0 -- -- 64
2019-06-10 13:00:00 24.9 14 Noroeste 28 Noroeste 0 -- -- 42
2019-06-10 12:00:00 23.3 14 Noroeste 28 Oeste 0 -- -- 46
2019-06-10 11:00:00 21.9 10 Norte 22 Noroeste 0 -- -- 51
2019-06-10 10:00:00 19.8 9 Noroeste 23 Oeste 0 -- -- 63
2019-06-10 09:00:00 17.2 10 Noroeste 22 Noroeste 0 -- -- 76
2019-06-10 08:00:00 14.5 4 Norte 11 Norte 0 -- -- 88
2019-06-10 07:00:00 14.1 6 Noroeste 20 Norte 0 -- -- 90
2019-06-10 06:00:00 14.6 11 Noroeste 24 Noroeste 0 -- -- 88
2019-06-10 05:00:00 15 12 Noroeste 25 Noroeste 0 -- -- 86
2019-06-10 04:00:00 15.7 13 Noroeste 30 Norte 0 -- -- 82
2019-06-10 03:00:00 16.4 13 Noroeste 31 Noroeste 0 -- -- 79
2019-06-10 02:00:00 17.1 15 Noroeste 37 Noroeste 0 -- -- 74
2019-06-10 01:00:00 17.8 14 Noroeste 37 Noroeste 0 -- -- 69
2019-06-10 00:00:00 18.9 14 Noroeste 31 Oeste 0 -- -- 64
2019-06-09 23:00:00 20.6 14 Noroeste 36 Noroeste 0 -- -- 53
2019-06-09 22:00:00 22.5 14 Noroeste 32 Oeste 0 -- -- 48
2019-06-09 21:00:00 25 13 Noroeste 35 Oeste 0 -- -- 42
2019-06-09 20:00:00 22.1 18 Sudoeste 33 Sudoeste 0 -- -- 65
2019-06-09 19:00:00 22.2 20 Sudoeste 35 Oeste 0 -- -- 64
2019-06-09 18:00:00 22.2 20 Sudoeste 39 Sudoeste 0 -- -- 62
2019-06-09 17:00:00 21.9 23 Sudoeste 37 Sudoeste 0 -- -- 62
2019-06-09 16:00:00 22.1 22 Sudoeste 43 Sudoeste 0 -- -- 59
2019-06-09 15:00:00 22.1 20 Sudoeste 39 Sudoeste 0 -- -- 55
2019-06-09 14:00:00 26.6 14 Oeste 32 Oeste 0 -- -- 27
2019-06-09 13:00:00 24.1 14 Noroeste 33 Noroeste 0 -- -- 32
2019-06-09 12:00:00 22.7 14 Noroeste 31 Noroeste 0 -- -- 32
2019-06-09 11:00:00 20.5 17 Norte 38 Noroeste 0 -- -- 38
2019-06-09 10:00:00 18.4 18 Noroeste 36 Norte 0 -- -- 40
2019-06-09 09:00:00 15.8 19 Noroeste 35 Norte 0 -- -- 53
2019-06-09 08:00:00 13.5 15 Noroeste 33 Noroeste 0 -- -- 61
2019-06-09 07:00:00 13.1 15 Noroeste 39 Noroeste 0 -- -- 62
2019-06-09 06:00:00 13.9 13 Noroeste 26 Noroeste 0 -- -- 59
2019-06-09 05:00:00 14.8 11 Noroeste 23 Noroeste 0 -- -- 57
2019-06-09 04:00:00 16 12 Noroeste 28 Noroeste 0 -- -- 54
2019-06-09 03:00:00 17.2 13 Noroeste 28 Noroeste 0 -- -- 51
2019-06-09 02:00:00 18.5 12 Noroeste 26 Noroeste 0 -- -- 51
2019-06-09 01:00:00 19.5 12 Noroeste 28 Noroeste 0 -- -- 50
2019-06-09 00:00:00 20.7 13 Noroeste 28 Oeste 0 -- -- 46
2019-06-08 23:00:00 21 10 Noroeste 28 Noroeste 0 -- -- 45
2019-06-08 22:00:00 21 13 Oeste 22 Oeste 0 -- -- 53
2019-06-08 21:00:00 23 14 Oeste 27 Sudoeste 0 -- -- 48
2019-06-08 20:00:00 23.5 17 Sudoeste 32 Sudoeste 0 -- -- 48
2019-06-08 19:00:00 23.4 17 Sudoeste 31 Sudoeste 0 -- -- 54
2019-06-08 18:00:00 23.7 19 Sudoeste 30 Sudoeste 0 -- -- 52
2019-06-08 17:00:00 24 18 Sudoeste 36 Sudoeste 0 -- -- 53
2019-06-08 16:00:00 24 22 Sudoeste 37 Sudoeste 0 -- -- 60
2019-06-08 15:00:00 27 18 Sudoeste 27 Sudoeste 0 -- -- 35
2019-06-08 14:00:00 27.5 18 Sudoeste 30 Sudoeste 0 -- -- 31
2019-06-08 13:00:00 28.1 13 Oeste 29 Oeste 0 -- -- 27
2019-06-08 12:00:00 26.5 10 Noroeste 24 Oeste 0 -- -- 34
2019-06-08 11:00:00 23.4 6 Norte 22 Noroeste 0 -- -- 40
2019-06-08 10:00:00 19.9 9 Noroeste 23 Noroeste 0 -- -- 49
2019-06-08 09:00:00 16.8 11 Noroeste 24 Noroeste 0 -- -- 57
2019-06-08 08:00:00 14.1 12 Noroeste 24 Noroeste 0 -- -- 66
2019-06-08 07:00:00 13.8 12 Noroeste 24 Noroeste 0 -- -- 67
2019-06-08 06:00:00 14.5 12 Noroeste 21 Noroeste 0 -- -- 64
2019-06-08 05:00:00 15.6 11 Noroeste 26 Noroeste 0 -- -- 59
2019-06-08 04:00:00 16.1 12 Noroeste 25 Noroeste 0 -- -- 55
2019-06-08 03:00:00 16.7 11 Noroeste 25 Noroeste 0 -- -- 53
2019-06-08 02:00:00 17.5 11 Noroeste 23 Noroeste 0 -- -- 52
2019-06-08 01:00:00 18.3 8 Noroeste 17 Noroeste 0 -- -- 43
2019-06-08 00:00:00 19.4 9 Noroeste 18 Noroeste 0 -- -- 39
2019-06-07 23:00:00 20.5 9 Noroeste 19 Noroeste 0 -- -- 36
2019-06-07 22:00:00 22.2 9 Noroeste 23 Noroeste 0 -- -- 33
2019-06-07 21:00:00 24.6 11 Noroeste 30 Norte 0 -- -- 28
2019-06-07 20:00:00 22.1 16 Oeste 37 Sudoeste 0 -- -- 58
2019-06-07 19:00:00 22.4 21 Sudoeste 40 Sudoeste 0 -- -- 59
2019-06-07 18:00:00 23.6 17 Oeste 35 Sudoeste 0 -- -- 52
2019-06-07 17:00:00 26.4 13 Noroeste 33 Noroeste 0 -- -- 27
2019-06-07 16:00:00 26.4 14 Noroeste 30 Nordeste 0 -- -- 29
2019-06-07 15:00:00 25.1 8 Noroeste 31 Noroeste 0 -- -- 31
2019-06-07 14:00:00 23.7 12 Nordeste 29 Norte 0 -- -- 33
2019-06-07 13:00:00 22.6 13 Norte 27 Norte 0 -- -- 37
2019-06-07 12:00:00 21 12 Norte 33 Nordeste 0 -- -- 44
2019-06-07 11:00:00 19.7 15 Norte 32 Norte 0 -- -- 49
2019-06-07 10:00:00 18 12 Noroeste 26 Noroeste 0 -- -- 58
2019-06-07 09:00:00 15.9 10 Noroeste 18 Noroeste 0 -- -- 75
2019-06-07 08:00:00 13.1 5 Noroeste 10 Noroeste 0 -- -- 90
2019-06-07 07:00:00 13 5 Noroeste 9 Noroeste 0 -- -- 87
2019-06-07 06:00:00 14.3 4 Noroeste 12 Norte 0 -- -- 82
2019-06-07 05:00:00 15.2 6 Norte 24 Norte 0 -- -- 78
2019-06-07 04:00:00 15.5 10 Norte 28 Noroeste 0 -- -- 78
2019-06-07 03:00:00 16.5 15 Noroeste 33 Noroeste 0 -- -- 80
2019-06-07 02:00:00 17.8 14 Sudoeste 25 Sudoeste 0 -- -- 86
2019-06-07 01:00:00 17.8 15 Sudoeste 34 Oeste 0 -- -- 83
2019-06-07 00:00:00 18 20 Oeste 37 Oeste 0 -- -- 80
2019-06-06 23:00:00 18.4 16 Oeste 38 Oeste 0 -- -- 75
2019-06-06 22:00:00 18.9 22 Oeste 42 Oeste 0 -- -- 73
2019-06-06 21:00:00 19.5 24 Oeste 48 Sudoeste 0 -- -- 75
2019-06-06 20:00:00 20 24 Sudoeste 49 Sudoeste 0 -- -- 72
2019-06-06 19:00:00 20 27 Sudoeste 50 Sudoeste 0 -- -- 69
2019-06-06 18:00:00 20.8 25 Sudoeste 41 Sudoeste 0 -- -- 66
2019-06-06 17:00:00 20.5 26 Sudoeste 40 Sudoeste 0 -- -- 66
2019-06-06 16:00:00 20.5 26 Sudoeste 41 Sudoeste 0 -- -- 61
2019-06-06 15:00:00 20.6 24 Sudoeste 40 Sudoeste 0 -- -- 58
2019-06-06 14:00:00 20.6 21 Sudoeste 44 Sudoeste 0 -- -- 55
2019-06-06 13:00:00 21.1 18 Sudoeste 30 Sudoeste 0 -- -- 49
2019-06-06 12:00:00 22.1 10 Oeste 23 Oeste 0 -- -- 36
2019-06-06 11:00:00 20.2 5 Noroeste 21 Norte 0 -- -- 42
2019-06-06 10:00:00 17.8 8 Norte 22 Norte 0 -- -- 52
2019-06-06 09:00:00 15.1 8 Noroeste 19 Noroeste 0 -- -- 63
2019-06-06 08:00:00 12.1 6 Noroeste 14 Noroeste 0 -- -- 72
2019-06-06 07:00:00 12 8 Noroeste 19 Noroeste 0 -- -- 71
2019-06-06 06:00:00 12.5 9 Noroeste 22 Noroeste 0 -- -- 67
2019-06-06 05:00:00 13.1 6 Noroeste 16 Noroeste 0 -- -- 65
2019-06-06 04:00:00 14.1 8 Noroeste 23 Norte 0 -- -- 62
2019-06-06 03:00:00 14.9 12 Noroeste 28 Noroeste 0 -- -- 60
2019-06-06 02:00:00 15.8 14 Noroeste 33 Norte 0 -- -- 58
2019-06-06 01:00:00 16.7 15 Noroeste 39 Oeste 0 -- -- 55
2019-06-06 00:00:00 18.1 12 Noroeste 33 Noroeste 0 -- -- 47
2019-06-05 23:00:00 19.8 13 Noroeste 27 Noroeste 0 -- -- 44
2019-06-05 22:00:00 19.6 5 Noroeste 21 Sudoeste 0 -- -- 53
2019-06-05 21:00:00 21.5 10 Sudoeste 23 Sudoeste 0 -- -- 63
2019-06-05 20:00:00 21.8 12 Sudoeste 31 Sudoeste 0 -- -- 67
2019-06-05 19:00:00 21.8 17 Sudoeste 32 Sudoeste 0 -- -- 65
2019-06-05 18:00:00 22.1 21 Sudoeste 36 Sudoeste 0 -- -- 58
2019-06-05 17:00:00 22 21 Sudoeste 37 Sudoeste 0 -- -- 60
2019-06-05 16:00:00 25.1 14 Noroeste 36 Oeste 0 -- -- 36
2019-06-05 15:00:00 24.9 13 Noroeste 36 Noroeste 0 -- -- 34
2019-06-05 14:00:00 23.6 15 Noroeste 35 Norte 0 -- -- 34
2019-06-05 13:00:00 22.6 18 Noroeste 33 Noroeste 0 -- -- 38
2019-06-05 12:00:00 21.7 14 Noroeste 40 Norte 0 -- -- 43
2019-06-05 11:00:00 20 13 Noroeste 28 Noroeste 0 -- -- 50
2019-06-05 10:00:00 18 11 Noroeste 25 Noroeste 0 -- -- 62
2019-06-05 09:00:00 15.4 7 Oeste 14 Oeste 0 -- -- 77
2019-06-05 08:00:00 13.6 5 Oeste 10 Oeste 0 -- -- 85
2019-06-05 07:00:00 12.4 4 Noroeste 8 Oeste 0 -- -- 86
2019-06-05 06:00:00 13.4 5 Noroeste 13 Noroeste 0 -- -- 81
2019-06-05 05:00:00 14.3 6 Noroeste 17 Noroeste 0 -- -- 77
2019-06-05 04:00:00 15.1 7 Noroeste 20 Noroeste 0 -- -- 71
2019-06-05 03:00:00 16.3 11 Noroeste 35 Noroeste 0 -- -- 62
2019-06-05 02:00:00 17.2 14 Noroeste 36 Noroeste 0 -- -- 56
2019-06-05 01:00:00 17.8 13 Noroeste 30 Noroeste 0 -- -- 61
2019-06-05 00:00:00 19 15 Noroeste 44 Noroeste 0 -- -- 59
2019-06-04 23:00:00 21.4 13 Noroeste 29 Oeste 0 -- -- 52
2019-06-04 22:00:00 22.8 14 Noroeste 35 Noroeste 0 -- -- 55
2019-06-04 21:00:00 23.8 18 Noroeste 39 Noroeste 0 -- -- 53
2019-06-04 20:00:00 25.6 20 Noroeste 39 Noroeste 0 -- -- 50
2019-06-04 19:00:00 22.7 19 Sudoeste 37 Oeste 0 -- -- 75
2019-06-04 18:00:00 23.6 24 Sudoeste 41 Sudoeste 0 -- -- 69
2019-06-04 17:00:00 23.5 25 Sudoeste 42 Sudoeste 0 -- -- 70
2019-06-04 16:00:00 23.2 26 Sudoeste 37 Sudoeste 0 -- -- 72
2019-06-04 15:00:00 23.3 25 Sudoeste 44 Sudoeste 0 -- -- 68
2019-06-04 14:00:00 23.3 24 Sudoeste 35 Sudoeste 0 -- -- 69
2019-06-04 13:00:00 27.2 12 Noroeste 26 Sudoeste 0 -- -- 47
2019-06-04 12:00:00 25.2 9 Noroeste 25 Noroeste 0 -- -- 53
2019-06-04 11:00:00 22.4 11 Noroeste 27 Noroeste 0 -- -- 63
2019-06-04 10:00:00 20.5 14 Noroeste 31 Noroeste 0 -- -- 71
2019-06-04 09:00:00 18.7 12 Noroeste 23 Noroeste 0 -- -- 81
2019-06-04 08:00:00 16.6 9 Noroeste 17 Noroeste 0 -- -- 91
2019-06-04 07:00:00 15.9 6 Noroeste 12 Noroeste 0 -- -- 93
2019-06-04 06:00:00 16.5 6 Noroeste 13 Noroeste 0 -- -- 89
2019-06-04 05:00:00 17 5 Noroeste 18 Noroeste 0 -- -- 87
2019-06-04 04:00:00 17.5 9 Noroeste 22 Noroeste 0 -- -- 84
2019-06-04 03:00:00 18.2 9 Noroeste 26 Noroeste 0 -- -- 80
2019-06-04 02:00:00 19.5 10 Noroeste 24 Noroeste 0 -- -- 75
2019-06-04 01:00:00 21.2 8 Noroeste 20 Noroeste 0 -- -- 61
2019-06-04 00:00:00 22.9 6 Noroeste 26 Noroeste 0 -- -- 41
2019-06-03 23:00:00 21.4 8 Noroeste 18 Noroeste 0 -- -- 50
2019-06-03 22:00:00 21.9 4 Nordeste 13 Sudoeste 0 -- -- 72
2019-06-03 21:00:00 23.7 8 Sudoeste 19 Sudoeste 0 -- -- 67
2019-06-03 20:00:00 24.7 10 Sudoeste 25 Sudoeste 0 -- -- 64
2019-06-03 19:00:00 25.4 15 Sudoeste 26 Sudoeste 0 -- -- 58
2019-06-03 18:00:00 25.6 15 Sudoeste 31 Sudoeste 0 -- -- 55
2019-06-03 17:00:00 26.3 19 Sudoeste 30 Sudoeste 0 -- -- 48
2019-06-03 16:00:00 26.5 17 Sudoeste 27 Sudoeste 0 -- -- 49
2019-06-03 15:00:00 26.2 15 Sudoeste 23 Oeste 0 -- -- 47
2019-06-03 14:00:00 25.6 11 Sudoeste 18 Sudoeste 0 -- -- 58
2019-06-03 13:00:00 26.3 10 Sur 17 Sur 0 -- -- 60
2019-06-03 12:00:00 26.2 8 Sur 13 Sur 0 -- -- 51
2019-06-03 11:00:00 24.9 6 Sur 13 Sur 0 -- -- 55
2019-06-03 10:00:00 23.6 6 Norte 13 Nordeste 0 -- -- 50
2019-06-03 09:00:00 18.7 5 Norte 11 Norte 0 -- -- 74
2019-06-03 08:00:00 15.1 5 Norte 9 Norte 0 -- -- 87
2019-06-03 07:00:00 14.1 3 Noroeste 8 Noroeste 0 -- -- 85
2019-06-03 06:00:00 15.3 4 Noroeste 8 Noroeste 0 -- -- 82
2019-06-03 05:00:00 17.6 5 Oeste 10 Sudoeste 0 -- -- 70
2019-06-03 04:00:00 19.7 6 Oeste 13 Sudoeste 0 -- -- 73
2019-06-03 03:00:00 21 8 Sudoeste 17 Sudoeste 0 -- -- 68
2019-06-03 02:00:00 21.7 8 Sudoeste 19 Sudoeste 0 -- -- 67
2019-06-03 01:00:00 22.1 12 Sudoeste 20 Sudoeste 0 -- -- 57
2019-06-03 00:00:00 22.1 12 Sudoeste 23 Sudoeste 0 -- -- 61
2019-06-02 23:00:00 22.1 14 Sudoeste 26 Sudoeste 0 -- -- 67
2019-06-02 22:00:00 22.3 14 Sudoeste 28 Sudoeste 0 -- -- 68
2019-06-02 21:00:00 23.8 15 Sudoeste 27 Sudoeste 0 -- -- 60
2019-06-02 20:00:00 25.4 16 Sudoeste 27 Sudoeste 0 -- -- 53
2019-06-02 19:00:00 26.3 12 Sudoeste 23 Sudoeste 0 -- -- 53
2019-06-02 18:00:00 26.8 12 Sudoeste 20 Sur 0 -- -- 47
2019-06-02 17:00:00 27.2 12 Sudoeste 21 Sudoeste 0 -- -- 42
2019-06-02 16:00:00 26.8 13 Sudoeste 22 Sudoeste 0 -- -- 44
2019-06-02 15:00:00 27.8 14 Sudoeste 21 Sudoeste 0 -- -- 36
2019-06-02 14:00:00 27.9 13 Sudoeste 18 Sudoeste 0 -- -- 37
2019-06-02 13:00:00 28.1 10 Sur 15 Sur 0 -- -- 42
2019-06-02 12:00:00 28.9 8 Sudeste 21 Sudeste 0 -- -- 36
2019-06-02 11:00:00 26.6 5 Este 13 Nordeste 0 -- -- 34
2019-06-02 10:00:00 23.7 8 Nordeste 16 Norte 0 -- -- 45
2019-06-02 09:00:00 20.2 7 Nordeste 14 Nordeste 0 -- -- 56
2019-06-02 08:00:00 14.5 6 Norte 9 Norte 0 -- -- 75
2019-06-02 07:00:00 13.3 6 Norte 14 Norte 0 -- -- 80
2019-06-02 06:00:00 14.1 7 Norte 12 Norte 0 -- -- 80
2019-06-02 05:00:00 14.5 7 Nordeste 11 Norte 0 -- -- 80
2019-06-02 04:00:00 14.9 6 Norte 9 Norte 0 -- -- 79
2019-06-02 03:00:00 14.7 5 Norte 8 Norte 0 -- -- 80
2019-06-02 02:00:00 18.2 4 Sudoeste 12 Sudoeste 0 -- -- 71
2019-06-02 01:00:00 20.2 8 Sudoeste 12 Sudoeste 0 -- -- 69
2019-06-02 00:00:00 18.3 5 Sudoeste 9 Oeste 0 -- -- 71
2019-06-01 23:00:00 21 5 Oeste 11 Sudoeste 0 -- -- 62
2019-06-01 22:00:00 22.4 7 Oeste 12 Oeste 0 -- -- 60
2019-06-01 21:00:00 24.3 7 Sudoeste 16 Sudoeste 0 -- -- 55
2019-06-01 20:00:00 25.1 12 Sudoeste 20 Sudoeste 0 -- -- 53
2019-06-01 19:00:00 26.2 12 Sudoeste 20 Sudoeste 0 -- -- 47
2019-06-01 18:00:00 26.6 12 Sudoeste 20 Sudoeste 0 -- -- 46
2019-06-01 17:00:00 26.4 13 Sudoeste 24 Sudoeste 0 -- -- 46
2019-06-01 16:00:00 28.3 15 Sudoeste 23 Sudoeste 0 -- -- 37
2019-06-01 15:00:00 28.1 10 Sur 19 Sur 0 -- -- 40
2019-06-01 14:00:00 26.5 10 Sur 24 Sur 0 -- -- 45
2019-06-01 13:00:00 27 10 Sur 16 Sur 0 -- -- 41
2019-06-01 12:00:00 26.5 10 Sur 19 Sur 0 -- -- 47
2019-06-01 11:00:00 26.6 9 Este 23 Este 0 -- -- 38
2019-06-01 10:00:00 23.6 12 Nordeste 27 Nordeste 0 -- -- 43
2019-06-01 09:00:00 20.7 5 Nordeste 11 Nordeste 0 -- -- 53
2019-06-01 08:00:00 15.3 6 Nordeste 9 Nordeste 0 -- -- 70
2019-06-01 07:00:00 13.3 6 Norte 10 Norte 0 -- -- 77
2019-06-01 06:00:00 14.3 5 Norte 11 Nordeste 0 -- -- 73
2019-06-01 05:00:00 14.5 8 Nordeste 11 Norte 0 -- -- 75
2019-06-01 04:00:00 14.7 6 Norte 10 Norte 0 -- -- 78
2019-06-01 03:00:00 15.7 6 Norte 11 Noroeste 0 -- -- 76
2019-06-01 02:00:00 15.6 6 Norte 11 Norte 0 -- -- 77
2019-06-01 01:00:00 15.3 4 Noroeste 6 Norte 0 -- -- 79
2019-06-01 00:00:00 17 3 Noroeste 6 Sudoeste 0 -- -- 73
2019-05-31 23:00:00 19.7 5 Sudoeste 7 Sudoeste 0 -- -- 67
2019-05-31 22:00:00 22.2 4 Oeste 11 Sudoeste 0 -- -- 61
2019-05-31 21:00:00 24.6 6 Oeste 15 Sudoeste 0 -- -- 51
2019-05-31 20:00:00 25.3 10 Sudoeste 17 Sudoeste 0 -- -- 48
2019-05-31 19:00:00 25.7 12 Sudoeste 22 Sudoeste 0 -- -- 50
2019-05-31 18:00:00 26.5 12 Sudoeste 21 Sudoeste 0 -- -- 43
2019-05-31 17:00:00 26.3 14 Sudoeste 23 Sudoeste 0 -- -- 44
2019-05-31 16:00:00 27.1 13 Sudoeste 18 Sudoeste 0 -- -- 43
2019-05-31 15:00:00 26.8 12 Sudoeste 17 Sudoeste 0 -- -- 37
2019-05-31 14:00:00 26.9 9 Sur 18 Sur 0 -- -- 41
2019-05-31 13:00:00 26.1 11 Sur 18 Sur 0 -- -- 43
2019-05-31 12:00:00 25.8 10 Sur 24 Este 0 -- -- 44
2019-05-31 11:00:00 26.3 12 Este 25 Este 0 -- -- 36
2019-05-31 10:00:00 23.8 10 Nordeste 22 Este 0 -- -- 41
2019-05-31 09:00:00 20.9 10 Nordeste 19 Nordeste 0 -- -- 49
2019-05-31 08:00:00 16.5 9 Nordeste 15 Nordeste 0 -- -- 64
2019-05-31 07:00:00 12.4 8 Norte 12 Norte 0 -- -- 84
2019-05-31 06:00:00 12.8 5 Norte 10 Norte 0 -- -- 82
2019-05-31 05:00:00 13.5 5 Norte 9 Nordeste 0 -- -- 74
2019-05-31 04:00:00 14 6 Norte 9 Nordeste 0 -- -- 72
2019-05-31 03:00:00 15 6 Nordeste 8 Nordeste 0 -- -- 73
2019-05-31 02:00:00 15.9 4 Norte 10 Norte 0 -- -- 77
2019-05-31 01:00:00 17.6 5 Noroeste 12 Este 0 -- -- 74
2019-05-31 00:00:00 20.8 6 Sudeste 16 Este 0 -- -- 67
2019-05-30 23:00:00 21 5 Sudeste 14 Este 0 -- -- 73
2019-05-30 22:00:00 21.8 5 Sudeste 15 Sudeste 0 -- -- 69
2019-05-30 21:00:00 23.4 6 Sur 17 Sudeste 0 -- -- 63
2019-05-30 20:00:00 24.8 6 Sur 17 Sudeste 0 -- -- 58
2019-05-30 19:00:00 25.1 9 Sur 18 Sudoeste 0 -- -- 55
2019-05-30 18:00:00 25.8 10 Sur 20 Sur 0 -- -- 52
2019-05-30 17:00:00 26 11 Sur 22 Sur 0 -- -- 54
2019-05-30 16:00:00 26.2 16 Sudoeste 22 Sudoeste 0 -- -- 52
2019-05-30 15:00:00 27.8 9 Sur 17 Sur 0 -- -- 42
2019-05-30 14:00:00 27.6 12 Sur 19 Sur 0 -- -- 42
2019-05-30 13:00:00 26.8 11 Sur 21 Este 0 -- -- 47
2019-05-30 12:00:00 27.1 13 Este 24 Este 0 -- -- 41
2019-05-30 11:00:00 25.2 9 Nordeste 21 Este 0 -- -- 47
2019-05-30 10:00:00 22.9 12 Nordeste 22 Nordeste 0 -- -- 54
2019-05-30 09:00:00 19.3 11 Nordeste 18 Nordeste 0 -- -- 66
2019-05-30 08:00:00 14 9 Norte 13 Nordeste 0 -- -- 93
2019-05-30 07:00:00 12 6 Nordeste 10 Nordeste 0 -- -- 94
2019-05-30 06:00:00 12.1 5 Norte 7 Norte 0 -- -- 93
2019-05-30 05:00:00 12.5 5 Norte 8 Norte 0 -- -- 93
2019-05-30 04:00:00 12.9 5 Norte 6 Norte 0 -- -- 89
2019-05-30 03:00:00 14.5 3 Este 8 Sudoeste 0 -- -- 85
2019-05-30 02:00:00 16.1 5 Sudoeste 11 Sudoeste 0 -- -- 83
2019-05-30 01:00:00 17.6 4 Sudoeste 9 Sur 0 -- -- 77
2019-05-30 00:00:00 18.3 5 Oeste 10 Sudoeste 0 -- -- 73
2019-05-29 23:00:00 20.1 5 Oeste 12 Oeste 0 -- -- 70
2019-05-29 22:00:00 21.8 7 Oeste 17 Sudoeste 0 -- -- 68
2019-05-29 21:00:00 23.9 9 Oeste 19 Sudoeste 0 -- -- 60
2019-05-29 20:00:00 25.1 12 Sudoeste 19 Sudoeste 0 -- -- 56
2019-05-29 19:00:00 25.7 11 Sudoeste 19 Sudoeste 0 -- -- 56
2019-05-29 18:00:00 26.4 13 Sudoeste 22 Sudoeste 0 -- -- 53
2019-05-29 17:00:00 26.2 13 Sudoeste 23 Sudoeste 0 -- -- 52
2019-05-29 16:00:00 27 14 Sudoeste 21 Sudoeste 0 -- -- 46
2019-05-29 15:00:00 26.6 11 Sudoeste 18 Sudoeste 0 -- -- 44
2019-05-29 14:00:00 26.6 8 Sur 15 Sudoeste 0 -- -- 48
2019-05-29 13:00:00 25.5 10 Sur 31 Este 0 -- -- 54
2019-05-29 12:00:00 29.1 19 Nordeste 36 Este 0 -- -- 30
2019-05-29 11:00:00 27.9 19 Este 46 Este 0 -- -- 29
2019-05-29 10:00:00 25.3 12 Este 28 Este 0 -- -- 45
2019-05-29 09:00:00 21.8 5 Sudeste 14 Sudeste 0 -- -- 82
2019-05-29 08:00:00 16.1 6 Sudeste 10 Sudeste 0 -- -- 94
2019-05-29 07:00:00 14.3 5 Sudeste 10 Sudeste 0 -- -- 86
2019-05-29 06:00:00 14.1 5 Norte 9 Norte 0 -- -- 80
2019-05-29 05:00:00 13.7 6 Norte 9 Norte 0 -- -- 89
2019-05-29 04:00:00 15.2 2 Oeste 8 Noroeste 0 -- -- 84
2019-05-29 03:00:00 17.1 2 Oeste 12 Norte 0 -- -- 80
2019-05-29 02:00:00 16.5 5 Norte 7 Norte 0 -- -- 85
2019-05-29 01:00:00 18.3 4 Nordeste 11 Norte 0 -- -- 80
2019-05-29 00:00:00 18.4 6 Nordeste 9 Nordeste 0 -- -- 79
2019-05-28 23:00:00 20.2 3 Nordeste 18 Sudoeste 0 -- -- 74
2019-05-28 22:00:00 21.4 10 Sur 15 Sur 0 -- -- 74
2019-05-28 21:00:00 22.2 6 Sur 14 Sur 0 -- -- 73
2019-05-28 20:00:00 22.9 9 Sur 22 Sudoeste 0 -- -- 70
2019-05-28 19:00:00 23.4 15 Sudoeste 28 Sudoeste 0 -- -- 68
2019-05-28 18:00:00 23.7 19 Sudoeste 30 Sudoeste 0 -- -- 65
2019-05-28 17:00:00 24.2 18 Sudoeste 28 Sudoeste 0 -- -- 62
2019-05-28 16:00:00 24.6 17 Sudoeste 27 Sudoeste 0 -- -- 58
2019-05-28 15:00:00 24.3 14 Sudoeste 25 Sudoeste 0 -- -- 64
2019-05-28 14:00:00 24.6 17 Sudoeste 26 Sudoeste 0 -- -- 61
2019-05-28 13:00:00 29.6 13 Sur 21 Sudoeste 0 -- -- 45
2019-05-28 12:00:00 29.1 5 Oeste 19 Noroeste 0 -- -- 42
2019-05-28 11:00:00 25.6 8 Norte 23 Noroeste 0 -- -- 51
2019-05-28 10:00:00 21.9 12 Norte 29 Noroeste 0 -- -- 62
2019-05-28 09:00:00 18.4 14 Noroeste 30 Noroeste 0 -- -- 72
2019-05-28 08:00:00 16 13 Norte 27 Norte 0 -- -- 81
2019-05-28 07:00:00 15.6 9 Norte 27 Noroeste 0 -- -- 82
2019-05-28 06:00:00 16.3 15 Noroeste 33 Norte 0 -- -- 79
2019-05-28 05:00:00 17.2 14 Noroeste 33 Noroeste 0 -- -- 76
2019-05-28 04:00:00 18.3 15 Noroeste 32 Noroeste 0 -- -- 72
2019-05-28 03:00:00 19.9 15 Norte 40 Noroeste 0 -- -- 68
2019-05-28 02:00:00 21.6 15 Noroeste 34 Oeste 0 -- -- 62
2019-05-28 01:00:00 23.5 14 Noroeste 36 Noroeste 0 -- -- 54
2019-05-28 00:00:00 25.6 14 Noroeste 34 Noroeste 0 -- -- 49
2019-05-27 23:00:00 26.4 14 Noroeste 28 Noroeste 0 -- -- 48
2019-05-27 22:00:00 22.1 3 Oeste 22 Oeste 0 -- -- 70
2019-05-27 21:00:00 23.1 14 Oeste 30 Sudoeste 0 -- -- 67
2019-05-27 20:00:00 24.2 13 Sudoeste 28 Sudoeste 0 -- -- 63
2019-05-27 19:00:00 24.8 16 Sudoeste 31 Sudoeste 0 -- -- 59
2019-05-27 18:00:00 23.1 19 Sudoeste 29 Sudoeste 0 -- -- 67
2019-05-27 17:00:00 23.7 18 Sudoeste 35 Sudoeste 0 -- -- 67
2019-05-27 16:00:00 24.1 20 Sudoeste 28 Oeste 0 -- -- 58
2019-05-27 15:00:00 24.1 15 Sudoeste 22 Sudoeste 0 -- -- 65
2019-05-27 14:00:00 24.8 10 Sur 18 Sur 0 -- -- 61
2019-05-27 13:00:00 25 8 Sur 15 Sur 0 -- -- 60
2019-05-27 12:00:00 24.2 8 Sur 13 Sur 0 -- -- 58
2019-05-27 11:00:00 22.5 7 Sur 10 Sur 0 -- -- 63
2019-05-27 10:00:00 22.4 4 Oeste 9 Oeste 0 -- -- 64
2019-05-27 09:00:00 18 3 Nordeste 8 Norte 0 -- -- 79
2019-05-27 08:00:00 12.9 5 Nordeste 8 Norte 0 -- -- 97
2019-05-27 07:00:00 11.7 5 Nordeste 8 Norte 0 -- -- 97
2019-05-27 06:00:00 11.6 4 Norte 6 Norte 0 -- -- 97
2019-05-27 05:00:00 11.8 4 Norte 5 Norte 0 -- -- 95
2019-05-27 04:00:00 12.1 4 Norte 5 Norte 0 -- -- 94
2019-05-27 03:00:00 13.2 3 Norte 8 Nordeste 0 -- -- 93
2019-05-27 02:00:00 15.1 4 Este 12 Norte 0 -- -- 91
2019-05-27 01:00:00 15.1 5 Noroeste 16 Noroeste 0 -- -- 93
2019-05-27 00:00:00 16 0 Calma 5 Sur 0 -- -- 87
2019-05-26 23:00:00 18.9 3 Sur 10 Sudoeste 0 -- -- 85
2019-05-26 22:00:00 19.3 7 Sudoeste 18 Sudoeste 0 -- -- 81
2019-05-26 21:00:00 20.6 10 Sudoeste 24 Oeste 0 -- -- 71
2019-05-26 20:00:00 22 14 Sudoeste 33 Oeste 0 -- -- 60
2019-05-26 19:00:00 23 19 Sudoeste 35 Sudoeste 0 -- -- 54
2019-05-26 18:00:00 23.8 19 Sudoeste 30 Sudoeste 0 -- -- 53
2019-05-26 17:00:00 24.2 17 Sudoeste 30 Sudoeste 0 -- -- 52
2019-05-26 16:00:00 24.4 14 Sudoeste 21 Sur 0 -- -- 57
2019-05-26 15:00:00 23.9 12 Sur 23 Sur 0 -- -- 58
2019-05-26 14:00:00 23.3 14 Sudoeste 20 Sudoeste 0 -- -- 57
2019-05-26 13:00:00 22.8 12 Sudoeste 18 Sudoeste 0 -- -- 57
2019-05-26 12:00:00 22.2 9 Sudoeste 14 Sudoeste 0 -- -- 59
2019-05-26 11:00:00 21.7 6 Sur 11 Sur 0 -- -- 63
2019-05-26 10:00:00 20.9 4 Sur 8 Sur 0 -- -- 69
2019-05-26 09:00:00 17.4 5 Norte 9 Nordeste 0 -- -- 85
2019-05-26 08:00:00 12 5 Norte 8 Nordeste 0 -- -- 98
2019-05-26 07:00:00 10.8 5 Norte 7 Nordeste 0 -- -- 97
2019-05-26 06:00:00 10.9 5 Nordeste 7 Nordeste 0 -- -- 96
2019-05-26 05:00:00 11.4 4 Norte 5 Norte 0 -- -- 95
2019-05-26 04:00:00 12.3 4 Nordeste 8 Norte 0 -- -- 94
2019-05-26 03:00:00 12.7 0 Calma 10 Sudeste 0 -- -- 91
2019-05-26 02:00:00 14.4 5 Este 10 Este 0 -- -- 90
2019-05-26 01:00:00 16.2 2 Oeste 8 Sudeste 0 -- -- 83
2019-05-26 00:00:00 18.7 5 Sudoeste 13 Sudoeste 0 -- -- 77
2019-05-25 23:00:00 19.5 7 Oeste 20 Sudoeste 0 -- -- 74
2019-05-25 22:00:00 19.7 9 Sudoeste 17 Sudoeste 0 -- -- 76
2019-05-25 21:00:00 20.8 9 Sudoeste 24 Sudoeste 0 -- -- 74
2019-05-25 20:00:00 21.5 16 Oeste 27 Sudoeste 0 -- -- 72
2019-05-25 19:00:00 21.6 17 Sudoeste 32 Sudoeste 0 -- -- 73
2019-05-25 18:00:00 22.2 16 Sudoeste 29 Sudoeste 0 -- -- 72
2019-05-25 17:00:00 22.8 16 Sudoeste 29 Sudoeste 0 -- -- 69
2019-05-25 16:00:00 22.7 19 Sudoeste 30 Oeste 0 -- -- 69
2019-05-25 15:00:00 23.1 17 Sudoeste 26 Sudoeste 0 -- -- 68
2019-05-25 14:00:00 22.4 16 Sudoeste 24 Oeste 0 -- -- 69
2019-05-25 13:00:00 22.1 12 Sudoeste 20 Sudoeste 0 -- -- 70
2019-05-25 12:00:00 21.8 9 Sudoeste 14 Sudoeste 0 -- -- 71
2019-05-25 11:00:00 21.1 6 Sur 13 Sudeste 0 -- -- 72
2019-05-25 10:00:00 21 5 Este 12 Este 0 -- -- 73
2019-05-25 09:00:00 19.9 6 Este 13 Sudeste 0 -- -- 80
2019-05-25 08:00:00 18.1 6 Este 15 Sudeste 0 -- -- 90
2019-05-25 07:00:00 17.7 8 Este 20 Este 0 -- -- 94
2019-05-25 06:00:00 18.1 8 Este 20 Norte 0 -- -- 88
2019-05-25 05:00:00 19 10 Norte 21 Norte 0 -- -- 56
2019-05-25 04:00:00 19.7 11 Noroeste 25 Norte 0 -- -- 55
2019-05-25 03:00:00 20.7 13 Noroeste 28 Norte 0 -- -- 54
2019-05-25 02:00:00 21.7 14 Noroeste 28 Norte 0 -- -- 51
2019-05-25 01:00:00 23 15 Noroeste 31 Noroeste 0 -- -- 47
2019-05-25 00:00:00 24.5 13 Noroeste 29 Noroeste 0 -- -- 40